sensor_id;sensor_type;location;lat;lon;timestamp;temperature;humidity
41344;DHT22;27089;50.022;7.604;2022-08-30T00:00:20;15.00;99.90
41344;DHT22;27089;50.022;7.604;2022-08-30T00:03:06;15.20;99.90
41344;DHT22;27089;50.022;7.604;2022-08-30T00:05:33;15.50;99.90
41344;DHT22;27089;50.022;7.604;2022-08-30T00:08:01;15.70;99.90
41344;DHT22;27089;50.022;7.604;2022-08-30T00:10:28;15.90;99.90
41344;DHT22;27089;50.022;7.604;2022-08-30T00:12:57;16.10;99.90
41344;DHT22;27089;50.022;7.604;2022-08-30T00:15:25;16.20;99.90
41344;DHT22;27089;50.022;7.604;2022-08-30T00:17:53;16.30;99.90
41344;DHT22;27089;50.022;7.604;2022-08-30T00:20:25;16.40;99.90
41344;DHT22;27089;50.022;7.604;2022-08-30T00:22:52;16.50;99.90
41344;DHT22;27089;50.022;7.604;2022-08-30T00:25:20;16.60;99.90
41344;DHT22;27089;50.022;7.604;2022-08-30T00:27:48;16.60;99.90
41344;DHT22;27089;50.022;7.604;2022-08-30T00:30:18;16.70;99.90
41344;DHT22;27089;50.022;7.604;2022-08-30T00:32:45;16.70;99.90
41344;DHT22;27089;50.022;7.604;2022-08-30T00:35:14;16.60;99.90
41344;DHT22;27089;50.022;7.604;2022-08-30T00:37:41;16.40;99.90
41344;DHT22;27089;50.022;7.604;2022-08-30T00:40:10;16.40;99.90
41344;DHT22;27089;50.022;7.604;2022-08-30T00:42:40;16.40;99.90
41344;DHT22;27089;50.022;7.604;2022-08-30T00:45:11;16.40;99.90
41344;DHT22;27089;50.022;7.604;2022-08-30T00:47:40;16.50;99.90
41344;DHT22;27089;50.022;7.604;2022-08-30T00:50:09;16.40;99.90
41344;DHT22;27089;50.022;7.604;2022-08-30T00:52:38;16.50;99.90
41344;DHT22;27089;50.022;7.604;2022-08-30T00:55:07;16.50;99.90
41344;DHT22;27089;50.022;7.604;2022-08-30T00:57:34;16.50;99.90
41344;DHT22;27089;50.022;7.604;2022-08-30T01:00:04;16.60;99.90
41344;DHT22;27089;50.022;7.604;2022-08-30T01:02:31;16.60;99.90
41344;DHT22;27089;50.022;7.604;2022-08-30T01:05:02;16.60;99.90
41344;DHT22;27089;50.022;7.604;2022-08-30T01:07:30;16.60;99.90
41344;DHT22;27089;50.022;7.604;2022-08-30T01:09:58;16.70;99.90
41344;DHT22;27089;50.022;7.604;2022-08-30T01:12:25;16.70;99.90
41344;DHT22;27089;50.022;7.604;2022-08-30T01:14:53;16.70;99.90
41344;DHT22;27089;50.022;7.604;2022-08-30T01:17:20;16.70;99.90
41344;DHT22;27089;50.022;7.604;2022-08-30T01:19:51;16.70;99.90
41344;DHT22;27089;50.022;7.604;2022-08-30T01:22:24;16.60;99.90
41344;DHT22;27089;50.022;7.604;2022-08-30T01:24:57;16.60;99.90
41344;DHT22;27089;50.022;7.604;2022-08-30T01:27:25;16.60;99.90
41344;DHT22;27089;50.022;7.604;2022-08-30T01:29:53;16.60;99.90
41344;DHT22;27089;50.022;7.604;2022-08-30T01:32:23;16.60;99.90
41344;DHT22;27089;50.022;7.604;2022-08-30T01:34:51;16.60;99.90
41344;DHT22;27089;50.022;7.604;2022-08-30T01:37:21;16.70;99.90
41344;DHT22;27089;50.022;7.604;2022-08-30T01:39:50;16.70;99.90
41344;DHT22;27089;50.022;7.604;2022-08-30T01:42:19;16.70;99.90
41344;DHT22;27089;50.022;7.604;2022-08-30T01:44:46;16.70;99.90
41344;DHT22;27089;50.022;7.604;2022-08-30T01:47:14;16.40;99.90
41344;DHT22;27089;50.022;7.604;2022-08-30T01:49:43;16.20;99.90
41344;DHT22;27089;50.022;7.604;2022-08-30T01:52:11;16.00;99.90
41344;DHT22;27089;50.022;7.604;2022-08-30T01:54:40;16.00;99.90
41344;DHT22;27089;50.022;7.604;2022-08-30T01:57:11;16.10;99.90
41344;DHT22;27089;50.022;7.604;2022-08-30T01:59:42;16.10;99.90
41344;DHT22;27089;50.022;7.604;2022-08-30T02:02:12;16.00;99.90
41344;DHT22;27089;50.022;7.604;2022-08-30T02:04:40;16.00;99.90
41344;DHT22;27089;50.022;7.604;2022-08-30T02:07:07;16.10;99.90
41344;DHT22;27089;50.022;7.604;2022-08-30T02:09:34;16.10;99.90
41344;DHT22;27089;50.022;7.604;2022-08-30T02:12:03;16.00;99.90
41344;DHT22;27089;50.022;7.604;2022-08-30T02:14:32;15.80;99.90
41344;DHT22;27089;50.022;7.604;2022-08-30T02:17:01;15.70;99.90
41344;DHT22;27089;50.022;7.604;2022-08-30T02:19:28;15.60;99.90
41344;DHT22;27089;50.022;7.604;2022-08-30T02:21:55;15.60;99.90
41344;DHT22;27089;50.022;7.604;2022-08-30T02:24:22;15.50;99.90
41344;DHT22;27089;50.022;7.604;2022-08-30T02:26:49;15.50;99.90
41344;DHT22;27089;50.022;7.604;2022-08-30T02:29:18;15.40;99.90
41344;DHT22;27089;50.022;7.604;2022-08-30T02:31:45;15.30;99.90
41344;DHT22;27089;50.022;7.604;2022-08-30T02:34:14;15.10;99.90
41344;DHT22;27089;50.022;7.604;2022-08-30T02:36:41;15.00;99.90
41344;DHT22;27089;50.022;7.604;2022-08-30T02:39:09;15.00;99.90
41344;DHT22;27089;50.022;7.604;2022-08-30T02:41:36;15.10;99.90
41344;DHT22;27089;50.022;7.604;2022-08-30T02:44:04;15.40;99.90
41344;DHT22;27089;50.022;7.604;2022-08-30T02:46:31;15.60;99.90
41344;DHT22;27089;50.022;7.604;2022-08-30T02:48:58;15.90;99.90
41344;DHT22;27089;50.022;7.604;2022-08-30T02:51:27;16.20;99.90
41344;DHT22;27089;50.022;7.604;2022-08-30T02:53:54;16.30;99.90
41344;DHT22;27089;50.022;7.604;2022-08-30T02:56:21;16.40;99.90
41344;DHT22;27089;50.022;7.604;2022-08-30T02:58:48;16.50;99.90
41344;DHT22;27089;50.022;7.604;2022-08-30T03:01:15;16.50;99.90
41344;DHT22;27089;50.022;7.604;2022-08-30T03:03:44;16.50;99.90
41344;DHT22;27089;50.022;7.604;2022-08-30T03:06:11;16.50;99.90
41344;DHT22;27089;50.022;7.604;2022-08-30T03:08:40;16.50;99.90
41344;DHT22;27089;50.022;7.604;2022-08-30T03:11:08;16.40;99.90
41344;DHT22;27089;50.022;7.604;2022-08-30T03:13:35;16.30;99.90
41344;DHT22;27089;50.022;7.604;2022-08-30T03:16:02;16.30;99.90
41344;DHT22;27089;50.022;7.604;2022-08-30T03:18:29;16.20;99.90
41344;DHT22;27089;50.022;7.604;2022-08-30T03:20:57;16.20;99.90
41344;DHT22;27089;50.022;7.604;2022-08-30T03:23:24;16.10;99.90
41344;DHT22;27089;50.022;7.604;2022-08-30T03:25:53;16.00;99.90
41344;DHT22;27089;50.022;7.604;2022-08-30T03:28:20;15.70;99.90
41344;DHT22;27089;50.022;7.604;2022-08-30T03:30:47;15.60;99.90
41344;DHT22;27089;50.022;7.604;2022-08-30T03:33:14;15.60;99.90
41344;DHT22;27089;50.022;7.604;2022-08-30T03:35:41;15.60;99.90
41344;DHT22;27089;50.022;7.604;2022-08-30T03:38:08;15.50;99.90
41344;DHT22;27089;50.022;7.604;2022-08-30T03:40:35;15.40;99.90
41344;DHT22;27089;50.022;7.604;2022-08-30T03:43:04;15.20;99.90
41344;DHT22;27089;50.022;7.604;2022-08-30T03:45:31;15.30;99.90
41344;DHT22;27089;50.022;7.604;2022-08-30T03:47:58;15.30;99.90
41344;DHT22;27089;50.022;7.604;2022-08-30T03:50:27;15.40;99.90
41344;DHT22;27089;50.022;7.604;2022-08-30T03:52:55;15.30;99.90
41344;DHT22;27089;50.022;7.604;2022-08-30T03:55:22;15.30;99.90
41344;DHT22;27089;50.022;7.604;2022-08-30T03:57:49;15.20;99.90
41344;DHT22;27089;50.022;7.604;2022-08-30T04:00:18;15.00;99.90
41344;DHT22;27089;50.022;7.604;2022-08-30T04:02:45;14.90;99.90
41344;DHT22;27089;50.022;7.604;2022-08-30T04:05:12;14.90;99.90
41344;DHT22;27089;50.022;7.604;2022-08-30T04:07:39;14.90;99.90
41344;DHT22;27089;50.022;7.604;2022-08-30T04:10:08;14.90;99.90
41344;DHT22;27089;50.022;7.604;2022-08-30T04:12:35;14.80;99.90
41344;DHT22;27089;50.022;7.604;2022-08-30T04:15:03;14.80;99.90
41344;DHT22;27089;50.022;7.604;2022-08-30T04:17:32;14.70;99.90
41344;DHT22;27089;50.022;7.604;2022-08-30T04:19:59;14.70;99.90
41344;DHT22;27089;50.022;7.604;2022-08-30T04:22:26;14.60;99.90
41344;DHT22;27089;50.022;7.604;2022-08-30T04:24:53;14.50;99.90
41344;DHT22;27089;50.022;7.604;2022-08-30T04:27:20;14.50;99.90
41344;DHT22;27089;50.022;7.604;2022-08-30T04:29:47;14.50;99.90
41344;DHT22;27089;50.022;7.604;2022-08-30T04:32:15;14.50;99.90
41344;DHT22;27089;50.022;7.604;2022-08-30T04:34:43;14.60;99.90
41344;DHT22;27089;50.022;7.604;2022-08-30T04:37:10;14.60;99.90
41344;DHT22;27089;50.022;7.604;2022-08-30T04:39:38;14.60;99.90
41344;DHT22;27089;50.022;7.604;2022-08-30T04:42:05;14.60;99.90
41344;DHT22;27089;50.022;7.604;2022-08-30T04:44:34;14.60;99.90
41344;DHT22;27089;50.022;7.604;2022-08-30T04:47:01;14.70;99.90
41344;DHT22;27089;50.022;7.604;2022-08-30T04:49:28;14.70;99.90
41344;DHT22;27089;50.022;7.604;2022-08-30T04:51:58;14.70;99.90
41344;DHT22;27089;50.022;7.604;2022-08-30T04:54:25;14.70;99.90
41344;DHT22;27089;50.022;7.604;2022-08-30T04:56:52;14.70;99.90
41344;DHT22;27089;50.022;7.604;2022-08-30T04:59:19;14.70;99.90
41344;DHT22;27089;50.022;7.604;2022-08-30T05:01:46;14.70;99.90
41344;DHT22;27089;50.022;7.604;2022-08-30T05:04:13;14.70;99.90
41344;DHT22;27089;50.022;7.604;2022-08-30T05:06:41;14.60;99.90
41344;DHT22;27089;50.022;7.604;2022-08-30T05:09:09;14.70;99.90
41344;DHT22;27089;50.022;7.604;2022-08-30T05:11:37;14.70;99.90
41344;DHT22;27089;50.022;7.604;2022-08-30T05:14:04;14.80;99.90
41344;DHT22;27089;50.022;7.604;2022-08-30T05:16:31;14.90;99.90
41344;DHT22;27089;50.022;7.604;2022-08-30T05:18:59;15.00;99.90
41344;DHT22;27089;50.022;7.604;2022-08-30T05:21:27;15.00;99.90
41344;DHT22;27089;50.022;7.604;2022-08-30T05:23:56;15.10;99.90
41344;DHT22;27089;50.022;7.604;2022-08-30T05:26:27;15.10;99.90
41344;DHT22;27089;50.022;7.604;2022-08-30T05:28:55;15.10;99.90
41344;DHT22;27089;50.022;7.604;2022-08-30T05:31:24;15.10;99.90
41344;DHT22;27089;50.022;7.604;2022-08-30T05:33:52;15.20;99.90
41344;DHT22;27089;50.022;7.604;2022-08-30T05:36:22;15.40;99.90
41344;DHT22;27089;50.022;7.604;2022-08-30T05:38:50;15.50;99.90
41344;DHT22;27089;50.022;7.604;2022-08-30T05:41:18;15.70;99.90
41344;DHT22;27089;50.022;7.604;2022-08-30T05:43:47;15.90;99.90
41344;DHT22;27089;50.022;7.604;2022-08-30T05:46:14;16.00;99.90
41344;DHT22;27089;50.022;7.604;2022-08-30T05:48:44;16.10;99.90
41344;DHT22;27089;50.022;7.604;2022-08-30T05:51:15;16.20;99.90
41344;DHT22;27089;50.022;7.604;2022-08-30T05:53:43;16.30;99.90
41344;DHT22;27089;50.022;7.604;2022-08-30T05:56:13;16.30;99.90
41344;DHT22;27089;50.022;7.604;2022-08-30T05:58:40;16.40;99.90
41344;DHT22;27089;50.022;7.604;2022-08-30T06:01:18;16.50;99.90
41344;DHT22;27089;50.022;7.604;2022-08-30T06:03:45;16.80;99.90
41344;DHT22;27089;50.022;7.604;2022-08-30T06:06:12;17.00;99.90
41344;DHT22;27089;50.022;7.604;2022-08-30T06:08:39;17.10;99.90
41344;DHT22;27089;50.022;7.604;2022-08-30T06:11:07;17.20;99.90
41344;DHT22;27089;50.022;7.604;2022-08-30T06:13:34;17.30;99.90
41344;DHT22;27089;50.022;7.604;2022-08-30T06:16:01;17.40;99.90
41344;DHT22;27089;50.022;7.604;2022-08-30T06:18:30;17.50;99.90
41344;DHT22;27089;50.022;7.604;2022-08-30T06:20:57;17.80;99.90
41344;DHT22;27089;50.022;7.604;2022-08-30T06:23:24;17.90;99.90
41344;DHT22;27089;50.022;7.604;2022-08-30T06:25:51;18.20;99.90
41344;DHT22;27089;50.022;7.604;2022-08-30T06:28:18;18.60;99.90
41344;DHT22;27089;50.022;7.604;2022-08-30T06:30:45;18.80;99.90
41344;DHT22;27089;50.022;7.604;2022-08-30T06:33:12;18.80;99.90
41344;DHT22;27089;50.022;7.604;2022-08-30T06:35:40;18.70;99.90
41344;DHT22;27089;50.022;7.604;2022-08-30T06:38:07;18.50;99.90
41344;DHT22;27089;50.022;7.604;2022-08-30T06:40:35;18.40;99.90
41344;DHT22;27089;50.022;7.604;2022-08-30T06:43:02;18.40;99.90
41344;DHT22;27089;50.022;7.604;2022-08-30T06:45:29;18.40;99.90
41344;DHT22;27089;50.022;7.604;2022-08-30T06:47:57;18.40;99.90
41344;DHT22;27089;50.022;7.604;2022-08-30T06:50:24;18.40;99.90
41344;DHT22;27089;50.022;7.604;2022-08-30T06:52:53;18.50;99.90
41344;DHT22;27089;50.022;7.604;2022-08-30T06:55:20;18.60;99.90
41344;DHT22;27089;50.022;7.604;2022-08-30T06:57:47;18.70;99.90
41344;DHT22;27089;50.022;7.604;2022-08-30T07:00:15;18.70;99.90
41344;DHT22;27089;50.022;7.604;2022-08-30T07:02:43;19.00;99.90
41344;DHT22;27089;50.022;7.604;2022-08-30T07:05:11;19.10;99.90
41344;DHT22;27089;50.022;7.604;2022-08-30T07:07:38;19.20;99.90
41344;DHT22;27089;50.022;7.604;2022-08-30T07:10:07;19.30;99.90
41344;DHT22;27089;50.022;7.604;2022-08-30T07:12:35;19.40;99.90
41344;DHT22;27089;50.022;7.604;2022-08-30T07:15:03;19.70;99.90
41344;DHT22;27089;50.022;7.604;2022-08-30T07:17:30;19.80;99.90
41344;DHT22;27089;50.022;7.604;2022-08-30T07:20:16;19.90;99.90
41344;DHT22;27089;50.022;7.604;2022-08-30T07:22:43;20.20;99.90
41344;DHT22;27089;50.022;7.604;2022-08-30T07:25:12;20.20;99.90
41344;DHT22;27089;50.022;7.604;2022-08-30T07:27:40;20.10;99.90
41344;DHT22;27089;50.022;7.604;2022-08-30T07:30:08;20.20;99.90
41344;DHT22;27089;50.022;7.604;2022-08-30T07:32:35;20.20;99.90
41344;DHT22;27089;50.022;7.604;2022-08-30T07:35:03;20.30;99.90
41344;DHT22;27089;50.022;7.604;2022-08-30T07:37:30;20.40;99.90
41344;DHT22;27089;50.022;7.604;2022-08-30T07:39:57;20.40;99.90
41344;DHT22;27089;50.022;7.604;2022-08-30T07:42:26;20.50;99.90
41344;DHT22;27089;50.022;7.604;2022-08-30T07:44:53;20.60;99.90
41344;DHT22;27089;50.022;7.604;2022-08-30T07:47:20;20.70;99.90
41344;DHT22;27089;50.022;7.604;2022-08-30T07:49:47;20.80;99.90
41344;DHT22;27089;50.022;7.604;2022-08-30T07:52:14;20.80;99.90
41344;DHT22;27089;50.022;7.604;2022-08-30T07:54:41;20.90;99.90
41344;DHT22;27089;50.022;7.604;2022-08-30T07:57:08;21.10;99.90
41344;DHT22;27089;50.022;7.604;2022-08-30T07:59:37;21.20;99.90
41344;DHT22;27089;50.022;7.604;2022-08-30T08:02:04;21.40;99.90
41344;DHT22;27089;50.022;7.604;2022-08-30T08:04:31;21.40;99.90
41344;DHT22;27089;50.022;7.604;2022-08-30T08:07:00;21.50;99.90
41344;DHT22;27089;50.022;7.604;2022-08-30T08:09:27;21.60;99.90
41344;DHT22;27089;50.022;7.604;2022-08-30T08:11:54;21.80;99.90
41344;DHT22;27089;50.022;7.604;2022-08-30T08:14:21;22.00;99.90
41344;DHT22;27089;50.022;7.604;2022-08-30T08:16:50;22.00;99.90
41344;DHT22;27089;50.022;7.604;2022-08-30T08:19:17;22.00;99.90
41344;DHT22;27089;50.022;7.604;2022-08-30T08:21:44;22.00;99.90
41344;DHT22;27089;50.022;7.604;2022-08-30T08:24:12;22.20;99.90
41344;DHT22;27089;50.022;7.604;2022-08-30T08:26:40;22.20;99.90
41344;DHT22;27089;50.022;7.604;2022-08-30T08:29:08;22.20;99.90
41344;DHT22;27089;50.022;7.604;2022-08-30T08:31:36;22.20;99.90
41344;DHT22;27089;50.022;7.604;2022-08-30T08:34:04;22.30;99.90
41344;DHT22;27089;50.022;7.604;2022-08-30T08:36:32;22.50;99.90
41344;DHT22;27089;50.022;7.604;2022-08-30T08:39:00;22.70;99.90
41344;DHT22;27089;50.022;7.604;2022-08-30T08:41:35;22.80;99.90
41344;DHT22;27089;50.022;7.604;2022-08-30T08:44:11;23.10;99.90
41344;DHT22;27089;50.022;7.604;2022-08-30T08:46:46;24.00;99.90
41344;DHT22;27089;50.022;7.604;2022-08-30T08:49:16;25.20;99.90
41344;DHT22;27089;50.022;7.604;2022-08-30T08:51:43;26.20;98.50
41344;DHT22;27089;50.022;7.604;2022-08-30T08:54:32;26.60;96.20
41344;DHT22;27089;50.022;7.604;2022-08-30T08:57:02;26.90;94.20
41344;DHT22;27089;50.022;7.604;2022-08-30T08:59:29;27.20;93.70
41344;DHT22;27089;50.022;7.604;2022-08-30T09:01:59;27.10;92.30
41344;DHT22;27089;50.022;7.604;2022-08-30T09:04:33;27.30;92.00
41344;DHT22;27089;50.022;7.604;2022-08-30T09:07:04;27.70;91.40
41344;DHT22;27089;50.022;7.604;2022-08-30T09:09:35;27.80;89.30
41344;DHT22;27089;50.022;7.604;2022-08-30T09:12:03;28.10;87.50
41344;DHT22;27089;50.022;7.604;2022-08-30T09:14:33;27.90;87.40
41344;DHT22;27089;50.022;7.604;2022-08-30T09:17:02;27.70;88.50
41344;DHT22;27089;50.022;7.604;2022-08-30T09:19:37;28.00;86.80
41344;DHT22;27089;50.022;7.604;2022-08-30T09:22:15;27.90;85.70
41344;DHT22;27089;50.022;7.604;2022-08-30T09:24:48;28.00;84.00
41344;DHT22;27089;50.022;7.604;2022-08-30T09:27:20;28.40;83.30
41344;DHT22;27089;50.022;7.604;2022-08-30T09:29:52;28.50;82.20
41344;DHT22;27089;50.022;7.604;2022-08-30T09:32:24;28.30;81.30
41344;DHT22;27089;50.022;7.604;2022-08-30T09:34:53;28.60;80.40
41344;DHT22;27089;50.022;7.604;2022-08-30T09:37:25;28.90;78.70
41344;DHT22;27089;50.022;7.604;2022-08-30T09:39:54;28.90;77.80
41344;DHT22;27089;50.022;7.604;2022-08-30T09:42:23;29.00;77.80
41344;DHT22;27089;50.022;7.604;2022-08-30T09:44:51;29.10;76.30
41344;DHT22;27089;50.022;7.604;2022-08-30T09:47:20;29.30;75.70
41344;DHT22;27089;50.022;7.604;2022-08-30T09:49:47;29.40;74.10
41344;DHT22;27089;50.022;7.604;2022-08-30T09:52:30;29.20;73.70
41344;DHT22;27089;50.022;7.604;2022-08-30T09:55:09;29.50;73.00
41344;DHT22;27089;50.022;7.604;2022-08-30T09:57:46;29.60;71.40
41344;DHT22;27089;50.022;7.604;2022-08-30T10:00:19;29.60;72.20
41344;DHT22;27089;50.022;7.604;2022-08-30T10:03:04;30.00;71.50
41344;DHT22;27089;50.022;7.604;2022-08-30T10:05:38;29.90;70.80
41344;DHT22;27089;50.022;7.604;2022-08-30T10:08:16;29.80;69.60
41344;DHT22;27089;50.022;7.604;2022-08-30T10:10:50;29.70;69.30
41344;DHT22;27089;50.022;7.604;2022-08-30T10:13:45;29.30;69.10
41344;DHT22;27089;50.022;7.604;2022-08-30T10:16:26;29.30;70.30
41344;DHT22;27089;50.022;7.604;2022-08-30T10:19:02;29.30;69.70
41344;DHT22;27089;50.022;7.604;2022-08-30T10:21:34;29.40;70.10
41344;DHT22;27089;50.022;7.604;2022-08-30T10:24:09;29.20;68.90
41344;DHT22;27089;50.022;7.604;2022-08-30T10:26:41;29.00;69.70
41344;DHT22;27089;50.022;7.604;2022-08-30T10:29:13;28.80;69.00
41344;DHT22;27089;50.022;7.604;2022-08-30T10:31:46;28.50;69.70
41344;DHT22;27089;50.022;7.604;2022-08-30T10:34:17;28.10;70.80
41344;DHT22;27089;50.022;7.604;2022-08-30T10:36:49;28.00;71.10
41344;DHT22;27089;50.022;7.604;2022-08-30T10:39:22;27.80;71.20
41344;DHT22;27089;50.022;7.604;2022-08-30T10:41:54;27.20;72.40
41344;DHT22;27089;50.022;7.604;2022-08-30T10:44:28;26.90;73.50
41344;DHT22;27089;50.022;7.604;2022-08-30T10:47:04;26.50;74.30
41344;DHT22;27089;50.022;7.604;2022-08-30T10:49:37;26.20;75.10
41344;DHT22;27089;50.022;7.604;2022-08-30T10:52:15;26.10;76.00
41344;DHT22;27089;50.022;7.604;2022-08-30T10:54:50;26.20;76.00
41344;DHT22;27089;50.022;7.604;2022-08-30T10:57:18;26.10;75.60
41344;DHT22;27089;50.022;7.604;2022-08-30T10:59:50;26.10;75.80
41344;DHT22;27089;50.022;7.604;2022-08-30T11:02:37;26.20;76.00
41344;DHT22;27089;50.022;7.604;2022-08-30T11:05:24;26.20;76.30
41344;DHT22;27089;50.022;7.604;2022-08-30T11:07:59;26.30;76.30
41344;DHT22;27089;50.022;7.604;2022-08-30T11:10:52;26.40;76.20
41344;DHT22;27089;50.022;7.604;2022-08-30T11:13:23;26.40;75.60
41344;DHT22;27089;50.022;7.604;2022-08-30T11:15:54;26.30;75.50
41344;DHT22;27089;50.022;7.604;2022-08-30T11:18:23;26.20;74.90
41344;DHT22;27089;50.022;7.604;2022-08-30T11:20:52;26.20;76.00
41344;DHT22;27089;50.022;7.604;2022-08-30T11:23:27;26.40;76.50
41344;DHT22;27089;50.022;7.604;2022-08-30T11:25:58;26.50;75.70
41344;DHT22;27089;50.022;7.604;2022-08-30T11:31:47;26.40;75.90
41344;DHT22;27089;50.022;7.604;2022-08-30T11:34:53;26.40;75.30
41344;DHT22;27089;50.022;7.604;2022-08-30T11:37:34;26.40;75.10
41344;DHT22;27089;50.022;7.604;2022-08-30T11:40:04;26.30;76.60
41344;DHT22;27089;50.022;7.604;2022-08-30T11:42:40;26.40;75.70
41344;DHT22;27089;50.022;7.604;2022-08-30T11:45:42;26.50;75.40
41344;DHT22;27089;50.022;7.604;2022-08-30T11:51:31;26.80;74.80
41344;DHT22;27089;50.022;7.604;2022-08-30T11:54:07;26.70;73.50
41344;DHT22;27089;50.022;7.604;2022-08-30T11:56:48;26.60;73.90
41344;DHT22;27089;50.022;7.604;2022-08-30T11:59:26;26.60;72.60
41344;DHT22;27089;50.022;7.604;2022-08-30T12:01:56;26.80;73.00
41344;DHT22;27089;50.022;7.604;2022-08-30T12:04:35;26.80;73.20
41344;DHT22;27089;50.022;7.604;2022-08-30T12:07:04;26.80;73.70
41344;DHT22;27089;50.022;7.604;2022-08-30T12:09:59;26.90;73.90
41344;DHT22;27089;50.022;7.604;2022-08-30T12:12:49;27.00;73.10
41344;DHT22;27089;50.022;7.604;2022-08-30T12:18:32;27.00;72.60
41344;DHT22;27089;50.022;7.604;2022-08-30T12:21:12;26.90;73.20
41344;DHT22;27089;50.022;7.604;2022-08-30T12:23:47;26.90;74.00
41344;DHT22;27089;50.022;7.604;2022-08-30T12:26:18;27.00;72.90
41344;DHT22;27089;50.022;7.604;2022-08-30T12:28:47;27.20;72.00
41344;DHT22;27089;50.022;7.604;2022-08-30T12:31:19;27.40;72.70
41344;DHT22;27089;50.022;7.604;2022-08-30T12:33:50;27.70;73.00
41344;DHT22;27089;50.022;7.604;2022-08-30T12:36:33;28.00;70.90
41344;DHT22;27089;50.022;7.604;2022-08-30T12:39:05;28.00;70.00
41344;DHT22;27089;50.022;7.604;2022-08-30T12:41:32;28.00;71.00
41344;DHT22;27089;50.022;7.604;2022-08-30T12:43:59;27.90;71.20
41344;DHT22;27089;50.022;7.604;2022-08-30T12:46:27;27.70;70.80
41344;DHT22;27089;50.022;7.604;2022-08-30T12:48:56;27.40;70.90
41344;DHT22;27089;50.022;7.604;2022-08-30T12:51:30;27.10;71.40
41344;DHT22;27089;50.022;7.604;2022-08-30T12:54:07;27.30;70.50
41344;DHT22;27089;50.022;7.604;2022-08-30T12:56:47;27.40;71.00
41344;DHT22;27089;50.022;7.604;2022-08-30T12:59:43;27.70;72.90
41344;DHT22;27089;50.022;7.604;2022-08-30T13:02:14;28.00;70.40
41344;DHT22;27089;50.022;7.604;2022-08-30T13:04:43;28.20;69.70
41344;DHT22;27089;50.022;7.604;2022-08-30T13:07:24;28.20;69.30
41344;DHT22;27089;50.022;7.604;2022-08-30T13:12:57;27.30;69.70
41344;DHT22;27089;50.022;7.604;2022-08-30T13:15:29;27.00;71.00
41344;DHT22;27089;50.022;7.604;2022-08-30T13:18:18;27.10;71.50
41344;DHT22;27089;50.022;7.604;2022-08-30T13:20:46;27.20;69.80
41344;DHT22;27089;50.022;7.604;2022-08-30T13:23:22;27.50;69.20
41344;DHT22;27089;50.022;7.604;2022-08-30T13:25:49;27.70;68.70
41344;DHT22;27089;50.022;7.604;2022-08-30T13:28:16;27.90;68.40
41344;DHT22;27089;50.022;7.604;2022-08-30T13:30:45;27.90;67.30
41344;DHT22;27089;50.022;7.604;2022-08-30T13:33:12;27.80;67.80
41344;DHT22;27089;50.022;7.604;2022-08-30T13:35:41;27.90;67.30
41344;DHT22;27089;50.022;7.604;2022-08-30T13:38:09;27.90;68.10
41344;DHT22;27089;50.022;7.604;2022-08-30T13:40:36;28.10;67.40
41344;DHT22;27089;50.022;7.604;2022-08-30T13:43:03;28.30;65.90
41344;DHT22;27089;50.022;7.604;2022-08-30T13:45:30;28.30;66.00
41344;DHT22;27089;50.022;7.604;2022-08-30T13:47:59;28.20;66.20
41344;DHT22;27089;50.022;7.604;2022-08-30T13:50:26;28.40;67.40
41344;DHT22;27089;50.022;7.604;2022-08-30T13:52:53;28.60;66.10
41344;DHT22;27089;50.022;7.604;2022-08-30T13:55:21;28.60;65.40
41344;DHT22;27089;50.022;7.604;2022-08-30T13:57:48;28.60;65.30
41344;DHT22;27089;50.022;7.604;2022-08-30T14:00:17;28.50;65.20
41344;DHT22;27089;50.022;7.604;2022-08-30T14:02:44;28.50;65.30
41344;DHT22;27089;50.022;7.604;2022-08-30T14:05:11;28.40;64.70
41344;DHT22;27089;50.022;7.604;2022-08-30T14:07:38;28.40;65.40
41344;DHT22;27089;50.022;7.604;2022-08-30T14:10:06;28.70;65.20
41344;DHT22;27089;50.022;7.604;2022-08-30T14:12:35;28.80;63.80
41344;DHT22;27089;50.022;7.604;2022-08-30T14:15:02;28.80;63.60
41344;DHT22;27089;50.022;7.604;2022-08-30T14:17:29;28.80;64.00
41344;DHT22;27089;50.022;7.604;2022-08-30T14:19:57;28.80;63.20
41344;DHT22;27089;50.022;7.604;2022-08-30T14:22:25;28.70;63.60
41344;DHT22;27089;50.022;7.604;2022-08-30T14:24:52;28.60;63.50
41344;DHT22;27089;50.022;7.604;2022-08-30T14:27:19;28.60;63.30
41344;DHT22;27089;50.022;7.604;2022-08-30T14:29:49;28.80;63.30
41344;DHT22;27089;50.022;7.604;2022-08-30T14:32:15;28.80;62.60
41344;DHT22;27089;50.022;7.604;2022-08-30T14:34:43;28.70;62.70
41344;DHT22;27089;50.022;7.604;2022-08-30T14:37:10;28.80;62.10
41344;DHT22;27089;50.022;7.604;2022-08-30T14:39:37;28.80;62.50
41344;DHT22;27089;50.022;7.604;2022-08-30T14:42:05;28.90;62.10
41344;DHT22;27089;50.022;7.604;2022-08-30T14:44:32;28.90;61.40
41344;DHT22;27089;50.022;7.604;2022-08-30T14:47:00;28.40;62.50
41344;DHT22;27089;50.022;7.604;2022-08-30T14:49:27;28.10;64.00
41344;DHT22;27089;50.022;7.604;2022-08-30T14:51:55;27.80;64.00
41344;DHT22;27089;50.022;7.604;2022-08-30T14:54:24;27.70;65.00
41344;DHT22;27089;50.022;7.604;2022-08-30T14:56:52;27.50;65.20
41344;DHT22;27089;50.022;7.604;2022-08-30T14:59:19;27.30;66.20
41344;DHT22;27089;50.022;7.604;2022-08-30T15:01:46;27.30;66.60
41344;DHT22;27089;50.022;7.604;2022-08-30T15:04:15;27.30;66.20
41344;DHT22;27089;50.022;7.604;2022-08-30T15:06:44;27.20;66.40
41344;DHT22;27089;50.022;7.604;2022-08-30T15:09:14;27.20;66.20
41344;DHT22;27089;50.022;7.604;2022-08-30T15:11:43;27.10;65.70
41344;DHT22;27089;50.022;7.604;2022-08-30T15:14:11;27.20;66.30
41344;DHT22;27089;50.022;7.604;2022-08-30T15:16:38;27.50;65.70
41344;DHT22;27089;50.022;7.604;2022-08-30T15:19:07;27.70;65.30
41344;DHT22;27089;50.022;7.604;2022-08-30T15:21:37;27.80;65.80
41344;DHT22;27089;50.022;7.604;2022-08-30T15:24:07;27.80;65.00
41344;DHT22;27089;50.022;7.604;2022-08-30T15:26:34;27.70;64.70
41344;DHT22;27089;50.022;7.604;2022-08-30T15:29:05;27.50;65.70
41344;DHT22;27089;50.022;7.604;2022-08-30T15:31:33;27.20;66.10
41344;DHT22;27089;50.022;7.604;2022-08-30T15:34:00;27.00;67.20
41344;DHT22;27089;50.022;7.604;2022-08-30T15:36:28;26.90;67.20
41344;DHT22;27089;50.022;7.604;2022-08-30T15:38:57;26.70;67.00
41344;DHT22;27089;50.022;7.604;2022-08-30T15:41:25;26.60;68.00
41344;DHT22;27089;50.022;7.604;2022-08-30T15:43:53;26.60;68.20
41344;DHT22;27089;50.022;7.604;2022-08-30T15:46:22;26.50;67.80
41344;DHT22;27089;50.022;7.604;2022-08-30T15:48:51;26.50;67.70
41344;DHT22;27089;50.022;7.604;2022-08-30T15:51:20;26.50;68.40
41344;DHT22;27089;50.022;7.604;2022-08-30T15:53:47;26.50;67.90
41344;DHT22;27089;50.022;7.604;2022-08-30T15:56:15;26.50;67.60
41344;DHT22;27089;50.022;7.604;2022-08-30T15:58:43;26.50;67.30